createdAt,value
2022-11-02T00:00:50.318Z,40.12
2022-11-02T00:03:20.783Z,40.33
2022-11-02T00:05:50.558Z,39.45
2022-11-02T00:08:19.220Z,36.03
2022-11-02T00:10:48.685Z,37.80
2022-11-02T00:13:20.825Z,34.95
2022-11-02T00:15:50.663Z,39.45
2022-11-02T00:18:20.579Z,37.40
2022-11-02T00:20:49.748Z,39.88
2022-11-02T00:23:18.875Z,37.20
2022-11-02T00:25:48.968Z,37.35
2022-11-02T00:28:19.207Z,36.40
2022-11-02T00:30:47.907Z,37.45
2022-11-02T00:33:17.372Z,41.58
2022-11-02T00:35:46.852Z,37.60
2022-11-02T00:38:15.472Z,40.20
2022-11-02T00:40:44.456Z,38.28
2022-11-02T00:43:13.815Z,35.80
2022-11-02T00:45:43.928Z,38.05
2022-11-02T00:48:14.424Z,36.25
2022-11-02T00:50:44.162Z,38.15
2022-11-02T00:53:13.492Z,35.55
2022-11-02T00:55:44.635Z,36.38
2022-11-02T00:58:15.122Z,31.77
2022-11-02T01:00:45.621Z,38.13
2022-11-02T01:03:14.784Z,37.03
2022-11-02T01:05:44.494Z,34.35
2022-11-02T01:08:13.473Z,32.67
2022-11-02T01:10:47.183Z,31.33
2022-11-02T01:13:14.664Z,31.55
2022-11-02T01:15:44.927Z,36.80
2022-11-02T01:18:14.058Z,31.82
2022-11-02T01:20:43.173Z,30.82
2022-11-02T01:23:12.678Z,37.80
2022-11-02T01:25:46.901Z,35.68
2022-11-02T01:28:15.803Z,33.55
2022-11-02T01:30:49.498Z,32.17
2022-11-02T01:33:20.709Z,32.15
2022-11-02T01:35:49.582Z,34.13
2022-11-02T01:38:18.932Z,32.13
2022-11-02T01:40:48.719Z,34.65
2022-11-02T01:43:30.311Z,29.42
2022-11-02T01:46:17.005Z,29.37
2022-11-02T01:49:00.982Z,30.57
2022-11-02T01:51:34.129Z,35.85
2022-11-02T01:54:08.422Z,29.60
2022-11-02T01:56:37.476Z,25.23
2022-11-02T01:59:13.451Z,29.77
2022-11-02T02:01:42.836Z,32.23
2022-11-02T02:04:12.769Z,32.28
2022-11-02T02:06:41.848Z,29.92
2022-11-02T02:09:10.960Z,31.37
2022-11-02T02:11:40.226Z,27.62
2022-11-02T02:14:16.179Z,29.85
2022-11-02T02:17:21.259Z,31.23
2022-11-02T02:20:06.115Z,31.52
2022-11-02T02:23:15.011Z,32.65
2022-11-02T02:26:15.101Z,36.60
2022-11-02T02:28:58.341Z,40.73
2022-11-02T02:31:53.721Z,43.13
2022-11-02T02:34:38.041Z,38.28
2022-11-02T02:37:15.164Z,40.03
2022-11-02T02:42:35.408Z,38.48
2022-11-02T02:45:49.768Z,39.80
2022-11-02T02:48:23.937Z,43.98
2022-11-02T02:51:03.997Z,39.18
2022-11-02T02:53:48.944Z,38.02
2022-11-02T02:56:21.601Z,40.65
2022-11-02T02:58:56.515Z,38.02
2022-11-02T03:01:26.605Z,42.43
2022-11-02T03:03:57.587Z,40.38
2022-11-02T03:06:31.666Z,39.35
2022-11-02T03:09:10.441Z,41.40
2022-11-02T03:11:47.491Z,40.40
2022-11-02T03:17:16.211Z,38.75
2022-11-02T03:20:26.906Z,39.60
2022-11-02T03:23:16.638Z,42.10
2022-11-02T03:26:04.057Z,34.98
2022-11-02T03:28:47.013Z,34.23
2022-11-02T03:31:34.073Z,36.15
2022-11-02T03:36:50.174Z,33.02
2022-11-02T03:39:24.541Z,32.25
2022-11-02T03:41:54.620Z,31.77
2022-11-02T03:44:24.923Z,34.65
2022-11-02T03:46:59.319Z,35.70
2022-11-02T03:49:30.696Z,34.03
2022-11-02T03:52:03.772Z,33.90
2022-11-02T03:55:05.065Z,30.00
2022-11-02T03:57:50.528Z,31.30
2022-11-02T04:00:24.284Z,32.85
2022-11-02T04:02:58.616Z,31.02
2022-11-02T04:05:33.461Z,32.28
2022-11-02T04:08:24.517Z,30.37
2022-11-02T04:11:15.128Z,29.37
2022-11-02T04:14:03.541Z,34.03
2022-11-02T04:16:34.700Z,30.20
2022-11-02T04:19:25.565Z,31.20
2022-11-02T04:22:15.021Z,37.93
2022-11-02T04:25:04.444Z,37.67
2022-11-02T04:27:35.095Z,43.13
2022-11-02T04:30:06.475Z,45.92
2022-11-02T04:33:06.112Z,44.03
2022-11-02T04:35:38.134Z,50.50
2022-11-02T04:38:25.557Z,51.85
2022-11-02T04:40:57.306Z,49.98
2022-11-02T04:43:26.413Z,48.50
2022-11-02T04:45:58.373Z,50.65
2022-11-02T04:48:27.251Z,46.80
2022-11-02T04:50:58.726Z,40.17
2022-11-02T04:53:27.623Z,45.15
2022-11-02T04:55:56.473Z,39.80
2022-11-02T04:58:26.393Z,37.70
2022-11-02T05:00:55.818Z,35.52
2022-11-02T05:03:24.575Z,40.67
2022-11-02T05:05:57.492Z,39.20
2022-11-02T05:08:26.445Z,36.77
2022-11-02T05:10:57.967Z,36.98
2022-11-02T05:13:27.915Z,38.42
2022-11-02T05:15:59.614Z,35.52
2022-11-02T05:18:30.451Z,35.50
2022-11-02T05:21:01.688Z,44.18
2022-11-02T05:23:31.452Z,39.65
2022-11-02T05:26:09.063Z,38.40
2022-11-02T05:28:38.796Z,36.70
2022-11-02T05:31:08.565Z,37.85
2022-11-02T05:33:39.587Z,35.50
2022-11-02T05:36:12.516Z,34.63
2022-11-02T05:38:43.756Z,34.05
2022-11-02T05:41:14.662Z,36.65
2022-11-02T05:43:44.677Z,32.98
2022-11-02T05:46:14.777Z,36.77
2022-11-02T05:48:45.259Z,40.43
2022-11-02T05:51:14.207Z,39.75
2022-11-02T05:53:46.664Z,40.65
2022-11-02T05:56:17.416Z,39.73
2022-11-02T05:58:47.206Z,35.92
2022-11-02T06:01:16.841Z,38.73
2022-11-02T06:03:53.012Z,36.00
2022-11-02T06:06:17.555Z,37.75
2022-11-02T06:08:47.133Z,42.88
2022-11-02T06:11:16.212Z,39.38
2022-11-02T06:13:45.601Z,41.33
2022-11-02T06:16:20.091Z,45.23
2022-11-02T06:18:47.090Z,48.63
2022-11-02T06:21:17.576Z,41.15
2022-11-02T06:23:50.740Z,43.25
2022-11-02T06:26:20.157Z,44.05
2022-11-02T06:28:48.993Z,41.90
2022-11-02T06:31:19.540Z,44.67
2022-11-02T06:33:48.963Z,46.35
2022-11-02T06:36:18.138Z,59.93
2022-11-02T06:38:48.238Z,50.75
2022-11-02T06:41:17.566Z,42.45
2022-11-02T06:43:46.398Z,34.55
2022-11-02T06:46:16.594Z,34.70
2022-11-02T06:48:48.253Z,33.42
2022-11-02T06:51:18.205Z,37.67
2022-11-02T06:53:47.934Z,32.15
2022-11-02T06:56:18.212Z,36.58
2022-11-02T06:58:47.948Z,33.38
2022-11-02T07:01:18.217Z,34.13
2022-11-02T07:03:47.577Z,33.85
2022-11-02T07:06:17.103Z,30.80
2022-11-02T07:08:45.791Z,37.98
2022-11-02T07:11:15.964Z,36.00
2022-11-02T07:13:46.960Z,36.95
2022-11-02T07:16:16.764Z,38.78
2022-11-02T07:18:46.610Z,35.05
2022-11-02T07:21:37.812Z,36.85
2022-11-02T07:24:07.458Z,36.88
2022-11-02T07:26:36.752Z,40.48
2022-11-02T07:29:05.798Z,42.90
2022-11-02T07:31:37.106Z,36.58
2022-11-02T07:34:09.038Z,45.85
2022-11-02T07:36:41.722Z,42.55
2022-11-02T07:39:12.608Z,45.10
2022-11-02T07:41:42.242Z,41.73
2022-11-02T07:44:12.762Z,41.53
2022-11-02T07:46:50.487Z,39.85
2022-11-02T07:49:21.783Z,40.63
2022-11-02T07:51:54.461Z,39.90
2022-11-02T07:54:26.552Z,36.77
2022-11-02T07:56:57.855Z,36.00
2022-11-02T07:59:26.936Z,36.15
2022-11-02T08:01:57.040Z,37.50
2022-11-02T08:04:27.182Z,32.70
2022-11-02T08:06:59.418Z,30.08
2022-11-02T08:09:29.505Z,36.88
2022-11-02T08:11:59.806Z,33.15
2022-11-02T08:14:29.705Z,32.33
2022-11-02T08:17:00.311Z,35.45
2022-11-02T08:19:31.419Z,32.58
2022-11-02T08:22:01.642Z,36.40
2022-11-02T08:24:31.804Z,37.93
2022-11-02T08:27:00.972Z,33.88
2022-11-02T08:29:30.695Z,35.35
2022-11-02T08:32:00.884Z,32.05
2022-11-02T08:34:30.078Z,37.28
2022-11-02T08:37:00.267Z,41.85
2022-11-02T08:39:31.111Z,38.98
2022-11-02T08:42:01.858Z,33.67
2022-11-02T08:44:32.079Z,38.78
2022-11-02T08:47:06.937Z,36.08
2022-11-02T08:53:00.066Z,34.35
2022-11-02T08:55:47.640Z,32.75
2022-11-02T08:58:24.159Z,34.15
2022-11-02T09:01:05.215Z,35.48
2022-11-02T09:03:34.989Z,32.63
2022-11-02T09:06:04.818Z,29.50
2022-11-02T09:09:02.295Z,32.40
2022-11-02T09:12:08.326Z,27.35
2022-11-02T09:15:18.687Z,27.02
2022-11-02T09:17:59.000Z,29.05
2022-11-02T09:20:40.884Z,24.52
2022-11-02T09:23:10.290Z,29.82
2022-11-02T09:25:41.005Z,25.00
2022-11-02T09:28:10.598Z,28.90
2022-11-02T09:30:43.334Z,30.30
2022-11-02T09:33:13.650Z,29.55
2022-11-02T09:36:12.866Z,30.12
2022-11-02T09:38:46.981Z,29.60
2022-11-02T09:41:39.573Z,29.07
2022-11-02T09:44:29.980Z,28.27
2022-11-02T09:47:48.951Z,28.65
2022-11-02T09:49:36.509Z,29.42
2022-11-02T09:52:31.551Z,28.90
2022-11-02T09:55:03.219Z,31.95
2022-11-02T09:57:33.582Z,32.65
2022-11-02T10:00:22.717Z,29.42
2022-11-02T10:04:02.592Z,28.15
2022-11-02T10:06:46.733Z,31.17
2022-11-02T10:09:44.812Z,30.45
2022-11-02T10:12:50.130Z,30.55
2022-11-02T10:15:48.625Z,36.15
2022-11-02T10:18:21.278Z,31.75
2022-11-02T10:20:59.756Z,30.62
2022-11-02T10:24:11.381Z,30.27
2022-11-02T10:26:42.246Z,30.30
2022-11-02T10:29:22.641Z,30.27
2022-11-02T10:31:52.029Z,31.55
2022-11-02T10:34:27.786Z,32.88
2022-11-02T10:37:04.620Z,31.75
2022-11-02T10:39:44.892Z,35.75
2022-11-02T10:42:42.236Z,31.45
2022-11-02T10:45:44.142Z,30.27
2022-11-02T10:48:37.429Z,34.03
2022-11-02T10:51:12.036Z,33.63
2022-11-02T10:53:45.679Z,29.55
2022-11-02T10:56:19.974Z,30.55
2022-11-02T10:59:03.995Z,32.23
2022-11-02T11:01:33.099Z,33.65
2022-11-02T11:04:04.378Z,29.75
2022-11-02T11:06:45.587Z,30.32
2022-11-02T11:09:42.884Z,28.10
2022-11-02T11:12:22.210Z,26.85
2022-11-02T11:20:27.994Z,26.02
2022-11-02T11:23:20.593Z,30.37
2022-11-02T11:25:59.480Z,27.30
2022-11-02T11:28:34.694Z,25.70
2022-11-02T11:31:15.725Z,25.08
2022-11-02T11:33:57.384Z,30.15
2022-11-02T11:36:30.308Z,26.90
2022-11-02T11:39:08.866Z,28.38
2022-11-02T11:41:40.232Z,28.15
2022-11-02T11:44:13.236Z,28.20
2022-11-02T11:46:50.387Z,28.83
2022-11-02T11:50:02.882Z,28.25
2022-11-02T11:52:06.092Z,29.90
2022-11-02T11:54:37.708Z,30.80
2022-11-02T11:57:31.868Z,25.77
2022-11-02T12:00:04.708Z,24.63
2022-11-02T12:02:43.993Z,33.78
2022-11-02T12:05:16.999Z,26.45
2022-11-02T12:08:13.136Z,29.00
2022-11-02T12:10:47.165Z,25.15
2022-11-02T12:13:53.443Z,29.42
2022-11-02T12:16:39.565Z,32.00
2022-11-02T12:19:34.252Z,34.05
2022-11-02T12:22:23.740Z,29.60
2022-11-02T12:25:16.036Z,30.00
2022-11-02T12:28:15.179Z,55.88
2022-11-02T12:31:13.536Z,26.17
2022-11-02T12:34:20.876Z,26.62
2022-11-02T12:37:39.047Z,29.50
2022-11-02T12:40:10.868Z,28.70
2022-11-02T12:46:00.326Z,31.15
2022-11-02T12:48:40.718Z,32.90
2022-11-02T12:51:23.725Z,24.15
2022-11-02T12:54:04.920Z,30.90
2022-11-02T12:56:52.605Z,27.73
2022-11-02T12:59:32.170Z,26.10
2022-11-02T13:02:18.740Z,29.00
2022-11-02T13:05:17.402Z,29.18
2022-11-02T13:07:53.466Z,24.82
2022-11-02T13:10:33.198Z,29.72
2022-11-02T13:13:09.204Z,31.55
2022-11-02T13:15:37.822Z,28.45
2022-11-02T13:18:20.089Z,32.23
2022-11-02T13:20:58.671Z,27.95
2022-11-02T13:23:50.550Z,23.38
2022-11-02T13:26:39.159Z,24.80
2022-11-02T13:29:39.376Z,25.00
2022-11-02T13:32:34.156Z,22.15
2022-11-02T13:35:27.114Z,19.00
2022-11-02T13:38:29.389Z,27.65
2022-11-02T13:41:43.792Z,21.93
2022-11-02T13:44:36.970Z,16.62
2022-11-02T13:47:46.594Z,18.82
2022-11-02T13:50:18.621Z,17.17
2022-11-02T13:52:58.950Z,17.17
2022-11-02T13:55:45.829Z,18.15
2022-11-02T13:58:31.197Z,23.05
2022-11-02T14:01:08.063Z,26.35
2022-11-02T14:04:01.881Z,21.73
2022-11-02T14:06:29.634Z,19.32
2022-11-02T14:09:07.063Z,20.55
2022-11-02T14:11:46.392Z,22.48
2022-11-02T14:14:24.025Z,21.45
2022-11-02T14:16:59.413Z,20.68
2022-11-02T14:19:52.137Z,19.62
2022-11-02T14:22:21.760Z,17.00
2022-11-02T14:24:55.112Z,26.55
2022-11-02T14:27:28.313Z,22.77
2022-11-02T14:29:57.855Z,16.80
2022-11-02T14:32:49.392Z,20.45
2022-11-02T14:35:40.781Z,20.65
2022-11-02T14:38:42.853Z,19.82
2022-11-02T14:41:49.749Z,18.05
2022-11-02T14:44:59.773Z,18.60
2022-11-02T14:47:30.602Z,22.87
2022-11-02T14:50:07.396Z,21.27
2022-11-02T14:52:36.655Z,22.75
2022-11-02T14:55:13.299Z,25.70
2022-11-02T14:57:44.324Z,38.33
2022-11-02T15:00:29.173Z,33.00
2022-11-02T15:02:59.234Z,33.15
2022-11-02T15:05:37.502Z,35.88
2022-11-02T15:08:18.431Z,29.77
2022-11-02T15:10:55.602Z,27.85
2022-11-02T15:13:30.600Z,27.90
2022-11-02T15:16:14.069Z,26.37
2022-11-02T15:18:44.942Z,24.32
2022-11-02T15:21:21.686Z,29.50
2022-11-02T15:24:13.811Z,24.98
2022-11-02T15:26:51.043Z,26.82
2022-11-02T15:29:37.143Z,25.10
2022-11-02T15:32:22.989Z,24.55
2022-11-02T15:34:55.133Z,22.10
2022-11-02T15:37:26.860Z,24.18
2022-11-02T15:40:03.689Z,21.25
2022-11-02T15:42:44.295Z,25.70
2022-11-02T15:45:48.521Z,26.62
2022-11-02T15:48:40.603Z,24.72
2022-11-02T15:51:42.550Z,24.93
2022-11-02T15:54:23.627Z,25.95
2022-11-02T15:57:07.060Z,24.30
2022-11-02T15:59:59.921Z,27.15
2022-11-02T16:02:52.097Z,24.35
2022-11-02T16:05:26.564Z,26.52
2022-11-02T16:08:11.926Z,25.82
2022-11-02T16:10:34.248Z,28.35
2022-11-02T16:13:24.961Z,29.63
2022-11-02T16:16:13.830Z,27.80
2022-11-02T16:18:52.416Z,24.10
2022-11-02T16:22:11.930Z,28.02
2022-11-02T16:24:43.498Z,25.15
2022-11-02T16:27:13.647Z,32.73
2022-11-02T16:29:46.120Z,29.35
2022-11-02T16:32:43.304Z,29.82
2022-11-02T16:35:14.722Z,30.55
2022-11-02T16:37:45.238Z,31.40
2022-11-02T16:40:17.680Z,30.95
2022-11-02T16:42:53.487Z,30.70
2022-11-02T16:45:42.303Z,24.90
2022-11-02T16:48:26.799Z,23.62
2022-11-02T16:51:20.618Z,25.90
2022-11-02T16:53:50.640Z,22.55
2022-11-02T16:56:32.327Z,23.60
2022-11-02T16:59:04.879Z,23.70
2022-11-02T17:01:39.423Z,20.70
2022-11-02T17:04:25.733Z,25.00
2022-11-02T17:07:12.775Z,24.92
2022-11-02T17:09:42.702Z,23.45
2022-11-02T17:12:15.504Z,24.90
2022-11-02T17:14:48.344Z,23.30
2022-11-02T17:17:29.762Z,28.47
2022-11-02T17:20:17.065Z,22.55
2022-11-02T17:23:03.091Z,22.30
2022-11-02T17:25:38.895Z,24.67
2022-11-02T17:28:40.154Z,21.70
2022-11-02T17:31:20.310Z,20.85
2022-11-02T17:33:50.333Z,22.90
2022-11-02T17:36:21.782Z,27.22
2022-11-02T17:38:52.148Z,25.20
2022-11-02T17:41:47.772Z,22.58
2022-11-02T17:44:17.169Z,22.95
2022-11-02T17:46:46.480Z,19.52
2022-11-02T17:49:16.212Z,20.45
2022-11-02T17:51:46.471Z,24.75
2022-11-02T17:54:15.783Z,22.37
2022-11-02T17:56:46.936Z,21.40
2022-11-02T17:59:16.857Z,21.30
2022-11-02T18:01:47.527Z,21.33
2022-11-02T18:04:18.121Z,21.73
2022-11-02T18:06:49.354Z,19.80
2022-11-02T18:09:22.080Z,22.07
2022-11-02T18:11:52.986Z,26.15
2022-11-02T18:14:22.954Z,22.58
2022-11-02T18:16:54.370Z,26.17
2022-11-02T18:19:24.869Z,21.80
2022-11-02T18:21:55.021Z,20.30
2022-11-02T18:24:23.998Z,23.57
2022-11-02T18:26:54.371Z,23.40
2022-11-02T18:29:24.294Z,20.45
2022-11-02T18:31:53.748Z,22.42
2022-11-02T18:34:23.443Z,21.77
2022-11-02T18:36:54.196Z,18.07
2022-11-02T18:39:23.925Z,19.15
2022-11-02T18:41:54.181Z,20.08
2022-11-02T18:44:24.303Z,20.12
2022-11-02T18:46:54.926Z,21.25
2022-11-02T18:49:25.794Z,19.65
2022-11-02T18:51:56.401Z,17.82
2022-11-02T18:54:26.035Z,19.12
2022-11-02T18:56:57.327Z,17.70
2022-11-02T18:59:27.273Z,19.52
2022-11-02T19:01:58.678Z,21.37
2022-11-02T19:04:29.815Z,23.18
2022-11-02T19:07:18.139Z,20.92
2022-11-02T19:09:49.941Z,22.35
2022-11-02T19:12:26.531Z,22.75
2022-11-02T19:14:57.341Z,25.57
2022-11-02T19:17:27.658Z,25.97
2022-11-02T19:19:57.090Z,24.32
2022-11-02T19:22:26.193Z,22.80
2022-11-02T19:24:55.601Z,23.25
2022-11-02T19:27:25.260Z,24.70
2022-11-02T19:29:54.076Z,26.42
2022-11-02T19:32:23.425Z,23.42
2022-11-02T19:34:52.858Z,24.77
2022-11-02T19:37:22.333Z,24.98
2022-11-02T19:39:51.251Z,27.27
2022-11-02T19:42:21.745Z,25.45
2022-11-02T19:44:50.365Z,24.70
2022-11-02T19:47:19.234Z,24.75
2022-11-02T19:49:47.963Z,23.67
2022-11-02T19:52:16.931Z,26.45
2022-11-02T19:54:47.314Z,20.57
2022-11-02T19:57:16.555Z,22.55
2022-11-02T19:59:46.049Z,19.37
2022-11-02T20:02:15.823Z,20.23
2022-11-02T20:04:46.103Z,23.47
2022-11-02T20:07:16.208Z,24.40
2022-11-02T20:09:45.229Z,22.93
2022-11-02T20:12:14.818Z,25.95
2022-11-02T20:14:45.615Z,22.10
2022-11-02T20:17:31.138Z,27.13
2022-11-02T20:19:47.865Z,25.65
2022-11-02T20:22:18.298Z,23.20
2022-11-02T20:24:47.053Z,21.45
2022-11-02T20:27:16.360Z,26.12
2022-11-02T20:29:46.087Z,23.77
2022-11-02T20:32:18.213Z,22.02
2022-11-02T20:34:48.134Z,20.50
2022-11-02T20:37:17.229Z,24.75
2022-11-02T20:39:46.730Z,20.17
2022-11-02T20:42:15.751Z,20.75
2022-11-02T20:44:47.833Z,21.00
2022-11-02T20:47:16.893Z,21.33
2022-11-02T20:49:51.254Z,21.35
2022-11-02T20:52:18.808Z,19.25
2022-11-02T20:54:48.409Z,20.70
2022-11-02T20:57:17.126Z,22.00
2022-11-02T20:59:46.497Z,18.82
2022-11-02T21:02:15.754Z,19.17
2022-11-02T21:04:45.543Z,17.75
2022-11-02T21:07:14.598Z,17.67
2022-11-02T21:09:43.454Z,18.90
2022-11-02T21:12:32.555Z,15.72
2022-11-02T21:15:02.662Z,18.27
2022-11-02T21:17:34.808Z,14.90
2022-11-02T21:22:37.978Z,17.27
2022-11-02T21:25:09.337Z,17.92
2022-11-02T21:27:38.211Z,19.00
2022-11-02T21:30:08.951Z,18.80
2022-11-02T21:32:39.196Z,16.62
2022-11-02T21:35:09.798Z,20.35
2022-11-02T21:37:40.244Z,19.62
2022-11-02T21:40:10.705Z,19.52
2022-11-02T21:42:40.768Z,18.48
2022-11-02T21:45:12.980Z,18.77
2022-11-02T21:47:42.712Z,23.07
2022-11-02T21:50:12.827Z,21.42
2022-11-02T21:52:45.198Z,21.52
2022-11-02T21:55:15.840Z,19.87
2022-11-02T21:57:46.607Z,20.52
2022-11-02T22:00:17.970Z,20.08
2022-11-02T22:02:49.703Z,19.15
2022-11-02T22:05:22.525Z,18.65
2022-11-02T22:08:12.892Z,19.25
2022-11-02T22:10:43.622Z,20.37
2022-11-02T22:13:31.013Z,16.27
2022-11-02T22:18:39.141Z,16.62
2022-11-02T22:21:10.001Z,16.93
2022-11-02T22:23:39.438Z,17.35
2022-11-02T22:26:11.196Z,19.55
2022-11-02T22:28:41.720Z,22.73
2022-11-02T22:31:23.956Z,18.82
2022-11-02T22:33:55.764Z,18.48
2022-11-02T22:36:29.107Z,23.95
2022-11-02T22:39:00.033Z,15.85
2022-11-02T22:41:39.226Z,20.17
2022-11-02T22:44:16.666Z,20.65
2022-11-02T22:46:49.964Z,17.82
2022-11-02T22:49:19.644Z,19.32
2022-11-02T22:51:51.264Z,16.70
2022-11-02T22:54:22.138Z,20.35
2022-11-02T22:56:52.318Z,19.77
2022-11-02T22:59:21.308Z,18.25
2022-11-02T23:01:51.537Z,20.62
2022-11-02T23:04:21.637Z,22.77
2022-11-02T23:06:51.149Z,21.20
2022-11-02T23:09:21.344Z,19.12
2022-11-02T23:11:51.640Z,20.95
2022-11-02T23:14:22.310Z,18.85
2022-11-02T23:16:51.808Z,20.72
2022-11-02T23:19:28.988Z,22.13
2022-11-02T23:22:28.041Z,18.02
2022-11-02T23:25:12.319Z,22.40
2022-11-02T23:28:18.140Z,23.18
2022-11-02T23:31:06.762Z,23.18
2022-11-02T23:33:40.189Z,20.40
2022-11-02T23:36:11.235Z,28.00
2022-11-02T23:39:03.056Z,20.20
2022-11-02T23:41:38.617Z,23.25
2022-11-02T23:44:18.138Z,23.07
2022-11-02T23:46:51.200Z,20.05
2022-11-02T23:49:20.601Z,22.67
2022-11-02T23:52:09.254Z,22.40
2022-11-02T23:54:56.838Z,23.85
2022-11-02T23:57:27.250Z,21.15
2022-11-02T23:59:56.658Z,19.45
